Stella, NE (68442)

8:13 AM CST on February 14, 2016 (GMT -0600)
MesoWest | | Change Station
CLOSE
Current Station
Personal Weather Station
Location: Stella, NE
Elevation: 1019 ft
Nearby Weather Stations

Elev 1019 ft 40.28 °N, 95.82 °W | Updated 4 hours ago

Overcast
Overcast
23.0 °F
Feels Like 23.0 °F
N
0.0
Wind Variable Wind from North
Gusts 0.0 mph

Today
High -- | Low -- °F
--% Chance of Precip.
Yesterday
High -- | Low -- °F
Precip. -- in
Pressure 30.00 in
Visibility 10.0 miles
Clouds Mostly Cloudy 3200 ft
Overcast 4200 ft
Dew Point Not available.
Humidity Not available.
Rainfall in
Snow Depth Not available.
7:18 AM 5:56 PM
Waxing Crescent, 42% visible
METAR KFNB 141353Z AUTO 18009KT 10SM BKN032 OVC042 M04/M13 A2996 RMK AO2 SLP158 T10441133 $
Pressure 30.00 in
Visibility 10.0 miles
Clouds Mostly Cloudy 3200 ft
Overcast 4200 ft
Dew Point Not available.
Humidity Not available.
Rainfall in
Snow Depth Not available.
7:18 AM 5:56 PM
Waxing Crescent, 42% visible
METAR KFNB 141353Z AUTO 18009KT 10SM BKN032 OVC042 M04/M13 A2996 RMK AO2 SLP158 T10441133 $

10-Day Weather Forecast

Almanac

Astronomy

Feb. 14, 2016 Rise Set
Actual Time
Civil Twilight
Nautical Twilight
Astronomical Twilight
Moon
Length of Visible Light
Length of Day
Tomorrow will be .
, % of the Moon is Illuminated

Today's Extremes

State Highs State Lows

Community

WunderPhotos

Upload Photos

1,892,797 photos uploaded!

WunderBlog® & News

Nearby

Air Quality

  Air Quality AQ Index Pollutant
Not available.

Snow Depth

Station Depth Elevation

Earthquake Activity

City Distance Mag. Time & Date
Minimum magnitude displayed is 2.5.

Coastal Water Temperatures

Place Temperature

Stations

Nearby Weather Stations

Station Location Temp. Windchill Dew Point Humidity Wind Precip. Elev Updated Type
                   

Watches & Warnings

There are currently no watches in effect.